createdAt,value
2022-10-27T00:02:05.777Z,14.00
2022-10-27T00:04:33.977Z,14.00
2022-10-27T00:07:03.718Z,14.10
2022-10-27T00:09:32.103Z,14.00
2022-10-27T00:12:00.430Z,14.10
2022-10-27T00:14:28.911Z,14.00
2022-10-27T00:16:58.178Z,14.00
2022-10-27T00:19:28.042Z,14.10
2022-10-27T00:21:58.059Z,14.00
2022-10-27T00:24:27.753Z,14.00
2022-10-27T00:26:55.980Z,13.90
2022-10-27T00:29:26.484Z,13.90
2022-10-27T00:31:54.651Z,13.90
2022-10-27T00:34:22.921Z,13.90
2022-10-27T00:36:51.090Z,14.00
2022-10-27T00:39:19.717Z,13.90
2022-10-27T00:41:51.048Z,13.90
2022-10-27T00:44:34.789Z,13.90
2022-10-27T00:47:07.456Z,13.80
2022-10-27T00:49:40.135Z,13.70
2022-10-27T00:52:13.456Z,13.60
2022-10-27T00:54:43.988Z,13.70
2022-10-27T00:57:14.570Z,13.60
2022-10-27T00:59:43.234Z,13.70
2022-10-27T01:02:12.145Z,13.70
2022-10-27T01:04:48.011Z,13.60
2022-10-27T01:07:19.314Z,13.70
2022-10-27T01:09:48.753Z,13.50
2022-10-27T01:12:18.569Z,13.50
2022-10-27T01:14:47.749Z,13.50
2022-10-27T01:17:41.246Z,13.60
2022-10-27T01:20:47.793Z,13.50
2022-10-27T01:23:25.565Z,13.40
2022-10-27T01:26:38.445Z,13.50
2022-10-27T01:29:39.904Z,13.50
2022-10-27T01:32:23.658Z,13.40
2022-10-27T01:34:58.745Z,13.40
2022-10-27T01:37:32.412Z,13.30
2022-10-27T01:40:04.911Z,13.20
2022-10-27T01:42:41.996Z,13.30
2022-10-27T01:45:13.757Z,13.10
2022-10-27T01:47:44.306Z,13.20
2022-10-27T01:50:12.602Z,13.20
2022-10-27T01:52:47.282Z,13.20
2022-10-27T01:55:20.166Z,13.20
2022-10-27T01:58:00.474Z,13.20
2022-10-27T02:00:28.982Z,13.30
2022-10-27T02:03:08.083Z,13.40
2022-10-27T02:05:44.772Z,13.40
2022-10-27T02:08:20.717Z,13.30
2022-10-27T02:10:55.636Z,13.40
2022-10-27T02:13:25.097Z,13.40
2022-10-27T02:15:56.968Z,13.30
2022-10-27T02:18:30.506Z,13.20
2022-10-27T02:23:32.369Z,13.30
2022-10-27T02:26:06.457Z,13.20
2022-10-27T02:28:39.641Z,13.10
2022-10-27T02:31:08.890Z,13.10
2022-10-27T02:33:39.428Z,13.20
2022-10-27T02:36:08.232Z,13.10
2022-10-27T02:38:36.515Z,13.10
2022-10-27T02:41:04.702Z,13.10
2022-10-27T02:43:32.743Z,13.10
2022-10-27T02:46:01.075Z,13.10
2022-10-27T02:48:29.279Z,13.10
2022-10-27T02:50:59.709Z,13.20
2022-10-27T02:53:28.014Z,13.20
2022-10-27T02:55:56.848Z,13.20
2022-10-27T02:58:25.101Z,13.10
2022-10-27T03:00:56.084Z,13.10
2022-10-27T03:03:25.019Z,13.20
2022-10-27T03:05:53.519Z,13.20
2022-10-27T03:08:23.287Z,13.20
2022-10-27T03:10:51.454Z,13.20
2022-10-27T03:13:19.520Z,13.10
2022-10-27T03:15:47.870Z,13.10
2022-10-27T03:18:16.302Z,13.10
2022-10-27T03:20:49.973Z,13.10
2022-10-27T03:23:18.041Z,13.10
2022-10-27T03:25:48.552Z,13.00
2022-10-27T03:28:17.775Z,12.90
2022-10-27T03:30:46.056Z,12.90
2022-10-27T03:33:14.034Z,12.90
2022-10-27T03:35:42.279Z,12.80
2022-10-27T03:38:13.396Z,12.80
2022-10-27T03:40:41.388Z,12.80
2022-10-27T03:43:11.313Z,12.80
2022-10-27T03:45:40.395Z,12.80
2022-10-27T03:48:11.605Z,12.80
2022-10-27T03:50:40.684Z,12.70
2022-10-27T03:53:08.942Z,12.70
2022-10-27T03:55:37.322Z,12.60
2022-10-27T03:58:05.563Z,12.60
2022-10-27T04:00:35.838Z,12.60
2022-10-27T04:03:03.986Z,12.60
2022-10-27T04:05:32.868Z,12.60
2022-10-27T04:08:01.771Z,12.60
2022-10-27T04:10:29.976Z,12.70
2022-10-27T04:12:59.068Z,12.70
2022-10-27T04:15:29.229Z,12.70
2022-10-27T04:18:00.708Z,12.70
2022-10-27T04:20:30.281Z,12.70
2022-10-27T04:22:59.097Z,12.80
2022-10-27T04:25:28.198Z,12.70
2022-10-27T04:28:02.373Z,12.70
2022-10-27T04:30:30.465Z,12.70
2022-10-27T04:33:00.120Z,12.60
2022-10-27T04:35:28.493Z,12.60
2022-10-27T04:37:57.709Z,12.60
2022-10-27T04:40:26.114Z,12.60
2022-10-27T04:42:54.356Z,12.70
2022-10-27T04:45:22.886Z,12.70
2022-10-27T04:47:51.227Z,12.70
2022-10-27T04:50:22.462Z,12.60
2022-10-27T04:52:56.557Z,12.70
2022-10-27T04:55:24.717Z,12.70
2022-10-27T04:57:52.971Z,12.70
2022-10-27T05:00:21.441Z,12.70
2022-10-27T05:02:54.858Z,12.70
2022-10-27T05:05:26.205Z,12.70
2022-10-27T05:07:55.058Z,12.70
2022-10-27T05:10:23.804Z,12.70
2022-10-27T05:12:52.638Z,12.70
2022-10-27T05:15:21.902Z,12.80
2022-10-27T05:17:50.659Z,12.80
2022-10-27T05:20:20.087Z,12.80
2022-10-27T05:22:50.064Z,12.80
2022-10-27T05:25:18.561Z,12.80
2022-10-27T05:27:47.511Z,12.80
2022-10-27T05:30:15.909Z,12.80
2022-10-27T05:32:46.535Z,12.80
2022-10-27T05:35:16.014Z,12.70
2022-10-27T05:37:47.662Z,12.70
2022-10-27T05:40:18.063Z,12.70
2022-10-27T05:42:53.720Z,12.70
2022-10-27T05:45:24.942Z,12.70
2022-10-27T05:47:58.862Z,12.70
2022-10-27T05:50:28.106Z,12.70
2022-10-27T05:52:56.589Z,12.70
2022-10-27T05:55:26.518Z,12.70
2022-10-27T05:57:55.590Z,12.80
2022-10-27T06:00:24.891Z,12.70
2022-10-27T06:02:53.925Z,12.60
2022-10-27T06:05:22.437Z,12.50
2022-10-27T06:07:50.986Z,12.50
2022-10-27T06:10:19.938Z,12.50
2022-10-27T06:12:49.560Z,12.50
2022-10-27T06:15:18.373Z,12.60
2022-10-27T06:17:47.140Z,12.60
2022-10-27T06:20:19.076Z,12.60
2022-10-27T06:22:47.835Z,12.50
2022-10-27T06:25:16.682Z,12.50
2022-10-27T06:27:44.734Z,12.50
2022-10-27T06:30:14.722Z,12.50
2022-10-27T06:32:43.362Z,12.40
2022-10-27T06:35:12.165Z,12.40
2022-10-27T06:37:40.641Z,12.50
2022-10-27T06:40:10.104Z,12.50
2022-10-27T06:42:49.314Z,12.50
2022-10-27T06:45:24.864Z,12.50
2022-10-27T06:47:58.341Z,12.50
2022-10-27T06:50:26.902Z,12.60
2022-10-27T06:52:55.736Z,12.60
2022-10-27T06:55:24.043Z,12.60
2022-10-27T06:57:52.854Z,12.60
2022-10-27T07:00:21.664Z,12.60
2022-10-27T07:02:52.540Z,12.80
2022-10-27T07:05:20.904Z,12.80
2022-10-27T07:07:49.765Z,12.80
2022-10-27T07:10:18.847Z,12.80
2022-10-27T07:12:57.949Z,12.80
2022-10-27T07:15:27.175Z,12.90
2022-10-27T07:18:01.341Z,13.00
2022-10-27T07:20:30.967Z,12.90
2022-10-27T07:22:59.615Z,13.10
2022-10-27T07:25:28.456Z,13.30
2022-10-27T07:27:57.190Z,13.50
2022-10-27T07:30:26.995Z,13.70
2022-10-27T07:32:55.173Z,13.80
2022-10-27T07:35:25.355Z,13.90
2022-10-27T07:37:54.525Z,14.20
2022-10-27T07:40:28.690Z,14.40
2022-10-27T07:43:06.688Z,14.60
2022-10-27T07:45:38.247Z,14.70
2022-10-27T07:48:08.464Z,14.70
2022-10-27T07:50:38.330Z,14.70
2022-10-27T07:53:07.215Z,14.80
2022-10-27T07:55:37.198Z,15.00
2022-10-27T07:58:07.883Z,15.20
2022-10-27T08:00:37.913Z,15.30
2022-10-27T08:03:07.550Z,15.40
2022-10-27T08:05:38.588Z,15.60
2022-10-27T08:08:09.051Z,15.80
2022-10-27T08:10:39.371Z,15.90
2022-10-27T08:13:08.170Z,16.00
2022-10-27T08:15:37.205Z,16.10
2022-10-27T08:18:05.812Z,16.20
2022-10-27T08:20:36.225Z,16.20
2022-10-27T08:23:09.257Z,16.40
2022-10-27T08:25:39.725Z,16.50
2022-10-27T08:28:08.709Z,16.60
2022-10-27T08:30:44.086Z,16.70
2022-10-27T08:33:18.364Z,16.70
2022-10-27T08:35:46.428Z,16.80
2022-10-27T08:38:16.931Z,16.90
2022-10-27T08:40:58.189Z,16.90
2022-10-27T08:44:00.167Z,17.00
2022-10-27T08:46:37.644Z,17.10
2022-10-27T08:51:43.970Z,17.30
2022-10-27T08:54:13.994Z,17.40
2022-10-27T08:56:43.144Z,17.60
2022-10-27T08:59:16.024Z,17.90
2022-10-27T09:01:52.801Z,18.20
2022-10-27T09:04:31.001Z,18.30
2022-10-27T09:07:14.869Z,18.60
2022-10-27T09:09:51.228Z,18.60
2022-10-27T09:12:35.506Z,18.80
2022-10-27T09:15:26.645Z,18.80
2022-10-27T09:17:59.899Z,18.90
2022-10-27T09:20:32.881Z,18.90
2022-10-27T09:23:08.068Z,19.00
2022-10-27T09:25:42.823Z,19.00
2022-10-27T09:28:20.340Z,19.00
2022-10-27T09:30:53.172Z,19.00
2022-10-27T09:33:26.436Z,19.00
2022-10-27T09:35:54.837Z,19.00
2022-10-27T09:38:26.013Z,19.20
2022-10-27T09:40:56.520Z,19.20
2022-10-27T09:43:31.254Z,19.20
2022-10-27T09:46:08.519Z,19.30
2022-10-27T09:48:37.259Z,19.30
2022-10-27T09:51:14.295Z,19.30
2022-10-27T09:53:45.430Z,19.30
2022-10-27T09:56:21.312Z,19.40
2022-10-27T09:58:58.231Z,19.40
2022-10-27T10:01:28.922Z,19.50
2022-10-27T10:04:10.247Z,19.50
2022-10-27T10:06:41.807Z,19.50
2022-10-27T10:09:27.627Z,19.60
2022-10-27T10:12:21.997Z,19.60
2022-10-27T10:15:15.948Z,19.70
2022-10-27T10:17:52.953Z,19.60
2022-10-27T10:20:44.418Z,19.80
2022-10-27T10:23:22.221Z,19.80
2022-10-27T10:25:51.982Z,19.80
2022-10-27T10:28:50.839Z,19.90
2022-10-27T10:31:34.347Z,19.90
2022-10-27T10:34:33.885Z,20.00
2022-10-27T10:37:09.501Z,20.10
2022-10-27T10:39:45.061Z,20.10
2022-10-27T10:42:54.998Z,20.10
2022-10-27T10:46:09.894Z,20.00
2022-10-27T10:48:51.993Z,20.20
2022-10-27T10:51:31.905Z,20.10
2022-10-27T10:54:02.634Z,20.10
2022-10-27T10:56:46.049Z,20.10
2022-10-27T10:59:22.185Z,20.10
2022-10-27T11:01:59.781Z,20.10
2022-10-27T11:04:34.799Z,20.10
2022-10-27T11:07:06.154Z,20.20
2022-10-27T11:09:40.098Z,20.10
2022-10-27T11:12:21.251Z,20.10
2022-10-27T11:14:54.649Z,20.10
2022-10-27T11:17:25.055Z,20.00
2022-10-27T11:19:57.111Z,20.00
2022-10-27T11:22:27.261Z,19.90
2022-10-27T11:24:58.986Z,19.80
2022-10-27T11:27:34.896Z,19.80
2022-10-27T11:30:12.464Z,19.90
2022-10-27T11:33:06.891Z,19.90
2022-10-27T11:35:46.944Z,19.90
2022-10-27T11:38:22.964Z,19.90
2022-10-27T11:40:58.026Z,19.70
2022-10-27T11:43:40.724Z,19.70
2022-10-27T11:46:18.826Z,19.70
2022-10-27T11:48:53.463Z,19.70
2022-10-27T11:51:30.721Z,19.80
2022-10-27T11:53:59.121Z,19.70
2022-10-27T11:56:42.320Z,19.70
2022-10-27T11:59:22.079Z,19.80
2022-10-27T12:02:02.161Z,19.80
2022-10-27T12:04:48.914Z,19.70
2022-10-27T12:07:31.974Z,19.70
2022-10-27T12:10:13.287Z,19.60
2022-10-27T12:12:45.159Z,19.60
2022-10-27T12:15:18.868Z,19.60
2022-10-27T12:17:51.346Z,19.60
2022-10-27T12:20:43.955Z,19.60
2022-10-27T12:23:19.294Z,19.60
2022-10-27T12:25:56.126Z,19.60
2022-10-27T12:28:27.749Z,19.60
2022-10-27T12:31:00.920Z,19.70
2022-10-27T12:33:36.027Z,19.70
2022-10-27T12:36:11.993Z,19.70
2022-10-27T12:38:51.906Z,19.70
2022-10-27T12:41:30.440Z,19.70
2022-10-27T12:44:07.005Z,19.70
2022-10-27T12:46:55.396Z,19.60
2022-10-27T12:49:29.568Z,19.60
2022-10-27T12:52:06.852Z,19.50
2022-10-27T12:54:50.969Z,19.50
2022-10-27T12:57:35.141Z,19.40
2022-10-27T13:00:12.660Z,19.40
2022-10-27T13:02:48.121Z,19.40
2022-10-27T13:05:39.180Z,19.40
2022-10-27T13:11:35.948Z,19.40
2022-10-27T13:14:33.817Z,19.30
2022-10-27T13:17:11.027Z,19.30
2022-10-27T13:19:48.315Z,19.20
2022-10-27T13:22:23.923Z,19.20
2022-10-27T13:25:02.558Z,19.20
2022-10-27T13:27:42.891Z,19.20
2022-10-27T13:30:19.053Z,19.20
2022-10-27T13:32:55.794Z,19.20
2022-10-27T13:35:33.314Z,19.20
2022-10-27T13:38:26.463Z,19.10
2022-10-27T13:40:56.871Z,19.10
2022-10-27T13:43:55.839Z,19.10
2022-10-27T13:47:10.901Z,19.10
2022-10-27T13:50:24.203Z,19.10
2022-10-27T13:53:32.215Z,19.00
2022-10-27T13:56:02.847Z,19.00
2022-10-27T13:58:55.380Z,19.00
2022-10-27T14:01:29.202Z,19.00
2022-10-27T14:04:32.287Z,18.90
2022-10-27T14:07:03.087Z,18.90
2022-10-27T14:09:36.636Z,18.80
2022-10-27T14:12:17.092Z,18.80
2022-10-27T14:14:52.778Z,18.70
2022-10-27T14:17:24.846Z,18.70
2022-10-27T14:20:30.634Z,18.70
2022-10-27T14:23:07.406Z,18.70
2022-10-27T14:25:35.450Z,18.70
2022-10-27T14:28:15.155Z,18.80
2022-10-27T14:30:45.912Z,18.70
2022-10-27T14:33:18.794Z,18.70
2022-10-27T14:35:47.318Z,18.70
2022-10-27T14:38:18.395Z,18.60
2022-10-27T14:40:49.112Z,18.60
2022-10-27T14:43:24.296Z,18.60
2022-10-27T14:45:59.039Z,18.60
2022-10-27T14:48:31.074Z,18.60
2022-10-27T14:51:01.856Z,18.60
2022-10-27T14:53:34.476Z,18.60
2022-10-27T14:56:16.986Z,18.70
2022-10-27T14:58:54.787Z,18.70
2022-10-27T15:01:35.269Z,18.70
2022-10-27T15:04:16.774Z,18.70
2022-10-27T15:06:47.160Z,18.70
2022-10-27T15:09:30.397Z,18.70
2022-10-27T15:12:00.422Z,18.70
2022-10-27T15:14:30.463Z,18.70
2022-10-27T15:17:01.857Z,18.70
2022-10-27T15:19:31.845Z,18.70
2022-10-27T15:22:03.824Z,18.60
2022-10-27T15:24:32.382Z,18.60
2022-10-27T15:27:00.552Z,18.50
2022-10-27T15:29:29.122Z,18.50
2022-10-27T15:32:03.099Z,18.50
2022-10-27T15:34:34.156Z,18.60
2022-10-27T15:37:27.621Z,18.60
2022-10-27T15:39:56.955Z,18.60
2022-10-27T15:42:28.744Z,18.50
2022-10-27T15:45:39.807Z,18.50
2022-10-27T15:48:32.785Z,18.40
2022-10-27T15:51:02.978Z,18.30
2022-10-27T15:53:34.513Z,18.30
2022-10-27T15:56:06.405Z,18.30
2022-10-27T15:58:36.412Z,18.30
2022-10-27T16:01:10.310Z,18.30
2022-10-27T16:03:43.490Z,18.30
2022-10-27T16:06:26.460Z,18.20
2022-10-27T16:08:55.533Z,18.10
2022-10-27T16:11:31.581Z,18.10
2022-10-27T16:14:04.995Z,18.10
2022-10-27T16:16:36.953Z,18.10
2022-10-27T16:19:07.960Z,18.00
2022-10-27T16:21:37.052Z,18.10
2022-10-27T16:24:13.901Z,18.10
2022-10-27T16:26:42.346Z,18.10
2022-10-27T16:29:15.694Z,18.00
2022-10-27T16:31:44.335Z,18.00
2022-10-27T16:34:22.437Z,18.00
2022-10-27T16:36:53.189Z,18.00
2022-10-27T16:39:21.197Z,17.90
2022-10-27T16:41:49.529Z,17.90
2022-10-27T16:44:18.153Z,17.90
2022-10-27T16:46:46.387Z,17.90
2022-10-27T16:49:16.371Z,17.80
2022-10-27T16:51:45.437Z,17.80
2022-10-27T16:54:13.446Z,17.70
2022-10-27T16:56:43.807Z,17.70
2022-10-27T16:59:11.848Z,17.70
2022-10-27T17:01:39.944Z,17.70
2022-10-27T17:04:08.035Z,17.70
2022-10-27T17:06:37.583Z,17.70
2022-10-27T17:09:05.748Z,17.70
2022-10-27T17:11:34.062Z,17.70
2022-10-27T17:14:02.175Z,17.70
2022-10-27T17:16:30.478Z,17.60
2022-10-27T17:18:58.714Z,17.60
2022-10-27T17:21:26.750Z,17.60
2022-10-27T17:23:58.888Z,17.50
2022-10-27T17:26:27.665Z,17.50
2022-10-27T17:28:58.906Z,17.40
2022-10-27T17:31:27.875Z,17.50
2022-10-27T17:33:57.750Z,17.50
2022-10-27T17:36:27.115Z,17.40
2022-10-27T17:38:56.963Z,17.40
2022-10-27T17:41:25.047Z,17.40
2022-10-27T17:43:53.278Z,17.40
2022-10-27T17:46:22.571Z,17.40
2022-10-27T17:48:53.883Z,17.30
2022-10-27T17:51:23.428Z,17.30
2022-10-27T17:53:52.668Z,17.30
2022-10-27T17:56:24.897Z,17.30
2022-10-27T17:58:54.124Z,17.30
2022-10-27T18:01:24.541Z,17.20
2022-10-27T18:03:55.929Z,17.20
2022-10-27T18:06:26.087Z,17.20
2022-10-27T18:08:58.283Z,17.20
2022-10-27T18:11:29.483Z,17.20
2022-10-27T18:14:03.316Z,17.30
2022-10-27T18:16:34.431Z,17.20
2022-10-27T18:19:03.956Z,17.10
2022-10-27T18:21:34.128Z,17.00
2022-10-27T18:24:03.033Z,17.10
2022-10-27T18:26:34.584Z,17.10
2022-10-27T18:29:03.715Z,17.10
2022-10-27T18:31:36.206Z,17.10
2022-10-27T18:34:05.085Z,17.00
2022-10-27T18:36:34.080Z,17.00
2022-10-27T18:39:03.118Z,17.00
2022-10-27T18:41:35.258Z,17.00
2022-10-27T18:44:04.491Z,17.00
2022-10-27T18:46:33.207Z,17.00
2022-10-27T18:49:02.452Z,16.90
2022-10-27T18:51:32.727Z,16.90
2022-10-27T18:54:03.862Z,16.90
2022-10-27T18:56:34.077Z,16.90
2022-10-27T18:59:04.246Z,16.80
2022-10-27T19:01:34.631Z,16.80
2022-10-27T19:04:08.468Z,16.80
2022-10-27T19:06:38.047Z,16.70
2022-10-27T19:09:07.768Z,16.80
2022-10-27T19:11:38.051Z,16.70
2022-10-27T19:14:06.574Z,16.80
2022-10-27T19:16:35.100Z,16.80
2022-10-27T19:19:03.531Z,16.80
2022-10-27T19:21:33.564Z,16.80
2022-10-27T19:24:03.207Z,16.80
2022-10-27T19:26:33.725Z,16.80
2022-10-27T19:29:05.776Z,16.80
2022-10-27T19:31:38.593Z,16.70
2022-10-27T19:36:41.659Z,16.70
2022-10-27T19:39:10.616Z,16.70
2022-10-27T19:41:40.442Z,16.70
2022-10-27T19:44:11.514Z,16.60
2022-10-27T19:46:39.932Z,16.60
2022-10-27T19:49:09.845Z,16.60
2022-10-27T19:51:39.658Z,16.70
2022-10-27T19:54:11.121Z,16.70
2022-10-27T19:56:47.492Z,16.60
2022-10-27T19:59:19.575Z,16.60
2022-10-27T20:01:51.753Z,16.60
2022-10-27T20:04:21.702Z,16.70
2022-10-27T20:06:49.908Z,16.70
2022-10-27T20:09:24.606Z,16.70
2022-10-27T20:11:52.591Z,16.60
2022-10-27T20:14:23.452Z,16.70
2022-10-27T20:16:57.746Z,16.60
2022-10-27T20:19:26.008Z,16.60
2022-10-27T20:21:55.898Z,16.70
2022-10-27T20:24:24.126Z,16.60
2022-10-27T20:26:52.848Z,16.60
2022-10-27T20:29:25.695Z,16.60
2022-10-27T20:31:56.385Z,16.70
2022-10-27T20:34:24.530Z,16.70
2022-10-27T20:36:54.804Z,16.70
2022-10-27T20:39:23.465Z,16.70
2022-10-27T20:41:52.810Z,16.60
2022-10-27T20:44:22.356Z,16.60
2022-10-27T20:46:51.880Z,16.60
2022-10-27T20:49:20.074Z,16.60
2022-10-27T20:51:48.216Z,16.50
2022-10-27T20:54:16.430Z,16.50
2022-10-27T20:56:44.524Z,16.50
2022-10-27T20:59:12.807Z,16.50
2022-10-27T21:01:43.937Z,16.50
2022-10-27T21:04:13.736Z,16.50
2022-10-27T21:06:43.722Z,16.50
2022-10-27T21:09:14.079Z,16.50
2022-10-27T21:11:43.688Z,16.40
2022-10-27T21:14:12.801Z,16.40
2022-10-27T21:16:45.897Z,16.40
2022-10-27T21:19:19.665Z,16.40
2022-10-27T21:21:49.134Z,16.30
2022-10-27T21:24:17.790Z,16.30
2022-10-27T21:26:46.661Z,16.30
2022-10-27T21:29:15.395Z,16.30
2022-10-27T21:31:46.667Z,16.20
2022-10-27T21:34:15.809Z,16.10
2022-10-27T21:36:44.136Z,16.20
2022-10-27T21:39:12.120Z,16.10
2022-10-27T21:41:40.385Z,16.10
2022-10-27T21:44:09.129Z,16.00
2022-10-27T21:46:37.456Z,15.90
2022-10-27T21:49:07.271Z,15.80
2022-10-27T21:51:35.561Z,15.80
2022-10-27T21:54:06.705Z,15.80
2022-10-27T21:56:36.267Z,15.80
2022-10-27T21:59:07.449Z,15.80
2022-10-27T22:01:38.239Z,15.80
2022-10-27T22:04:08.025Z,15.80
2022-10-27T22:06:36.968Z,15.90
2022-10-27T22:09:05.771Z,15.90
2022-10-27T22:11:36.221Z,15.80
2022-10-27T22:14:05.402Z,15.70
2022-10-27T22:16:35.927Z,15.70
2022-10-27T22:19:07.074Z,15.70
2022-10-27T22:21:38.463Z,15.70
2022-10-27T22:24:07.761Z,15.60
2022-10-27T22:26:36.096Z,15.70
2022-10-27T22:29:04.557Z,15.70
2022-10-27T22:31:32.678Z,15.70
2022-10-27T22:34:02.748Z,15.50
2022-10-27T22:36:31.462Z,15.60
2022-10-27T22:39:02.451Z,15.60
2022-10-27T22:41:31.496Z,15.60
2022-10-27T22:44:00.331Z,15.60
2022-10-27T22:46:30.904Z,15.60
2022-10-27T22:48:59.589Z,15.50
2022-10-27T22:51:29.081Z,15.50
2022-10-27T22:53:58.552Z,15.50
2022-10-27T22:56:30.120Z,15.50
2022-10-27T22:58:59.815Z,15.50
2022-10-27T23:01:29.717Z,15.50
2022-10-27T23:04:00.914Z,15.50
2022-10-27T23:06:33.358Z,15.60
2022-10-27T23:09:02.705Z,15.50
2022-10-27T23:11:35.916Z,15.50
2022-10-27T23:14:04.780Z,15.50
2022-10-27T23:16:34.281Z,15.50
2022-10-27T23:19:02.799Z,15.50
2022-10-27T23:21:31.989Z,15.50
2022-10-27T23:24:01.859Z,15.50
2022-10-27T23:26:33.827Z,15.50
2022-10-27T23:29:03.749Z,15.50
2022-10-27T23:31:32.576Z,15.50
2022-10-27T23:34:05.718Z,15.50
2022-10-27T23:36:35.235Z,15.50
2022-10-27T23:39:03.733Z,15.40
2022-10-27T23:41:34.065Z,15.40
2022-10-27T23:44:02.555Z,15.40
2022-10-27T23:46:30.913Z,15.30
2022-10-27T23:48:59.291Z,15.30
2022-10-27T23:51:27.713Z,15.20
2022-10-27T23:53:56.445Z,15.30
2022-10-27T23:56:24.888Z,15.30
2022-10-27T23:58:55.113Z,15.30
